createdAt,value
2023-02-18T00:01:57.885Z,68.38
2023-02-18T00:04:27.223Z,69.88
2023-02-18T00:06:56.684Z,65.90
2023-02-18T00:09:25.943Z,65.63
2023-02-18T00:11:55.441Z,77.05
2023-02-18T00:14:24.742Z,76.30
2023-02-18T00:16:54.092Z,70.13
2023-02-18T00:19:24.846Z,72.82
2023-02-18T00:21:54.155Z,68.95
2023-02-18T00:24:23.560Z,63.33
2023-02-18T00:26:53.523Z,80.07
2023-02-18T00:29:22.826Z,69.57
2023-02-18T00:31:52.224Z,66.47
2023-02-18T00:34:21.522Z,77.97
2023-02-18T00:36:52.090Z,73.00
2023-02-18T00:39:21.020Z,63.53
2023-02-18T00:41:50.276Z,63.28
2023-02-18T00:44:19.474Z,73.45
2023-02-18T00:46:49.924Z,71.85
2023-02-18T00:49:19.251Z,69.60
2023-02-18T00:51:48.346Z,73.00
2023-02-18T00:54:18.775Z,72.85
2023-02-18T00:56:48.795Z,75.43
2023-02-18T00:59:17.789Z,66.15
2023-02-18T01:01:47.075Z,67.45
2023-02-18T01:04:16.243Z,67.32
2023-02-18T01:06:45.692Z,66.13
2023-02-18T01:09:14.892Z,75.82
2023-02-18T01:11:45.715Z,70.95
2023-02-18T01:14:15.141Z,74.15
2023-02-18T01:16:44.765Z,74.97
2023-02-18T01:19:14.134Z,65.60
2023-02-18T01:21:43.221Z,71.57
2023-02-18T01:24:12.342Z,72.07
2023-02-18T01:26:41.690Z,73.32
2023-02-18T01:29:12.019Z,74.75
2023-02-18T01:31:42.771Z,75.43
2023-02-18T01:34:15.270Z,76.38
2023-02-18T01:36:44.708Z,78.82
2023-02-18T01:39:13.943Z,74.07
2023-02-18T01:41:43.439Z,67.38
2023-02-18T01:44:17.870Z,63.53
2023-02-18T01:46:48.303Z,72.25
2023-02-18T01:49:20.629Z,76.10
2023-02-18T01:51:53.356Z,74.82
2023-02-18T01:54:28.474Z,73.45
2023-02-18T01:57:01.353Z,71.05
2023-02-18T01:59:34.902Z,73.07
2023-02-18T02:02:04.729Z,78.63
2023-02-18T02:04:33.963Z,79.45
2023-02-18T02:07:03.440Z,75.88
2023-02-18T02:09:50.200Z,75.07
2023-02-18T02:12:52.800Z,75.38
2023-02-18T02:15:35.199Z,70.93
2023-02-18T02:19:03.819Z,71.43
2023-02-18T02:22:19.225Z,66.07
2023-02-18T02:25:38.347Z,64.63
2023-02-18T02:28:46.045Z,64.53
2023-02-18T02:32:13.234Z,67.05
2023-02-18T02:35:02.876Z,53.63
2023-02-18T02:37:38.722Z,50.00
2023-02-18T02:40:19.921Z,53.50
2023-02-18T02:43:33.684Z,56.72
2023-02-18T02:46:21.579Z,51.70
2023-02-18T02:49:00.745Z,52.75
2023-02-18T02:51:34.682Z,47.47
2023-02-18T02:54:19.232Z,44.65
2023-02-18T02:56:49.367Z,48.08
2023-02-18T03:02:33.220Z,49.25
2023-02-18T03:05:42.256Z,51.42
2023-02-18T03:08:26.988Z,47.17
2023-02-18T03:11:01.536Z,47.10
2023-02-18T03:13:43.956Z,53.45
2023-02-18T03:16:27.625Z,52.28
2023-02-18T03:19:07.166Z,55.47
2023-02-18T03:21:42.659Z,54.45
2023-02-18T03:24:17.824Z,58.83
2023-02-18T03:26:50.656Z,49.47
2023-02-18T03:29:22.495Z,57.15
2023-02-18T03:31:57.091Z,64.93
2023-02-18T03:34:31.133Z,55.17
2023-02-18T03:37:02.461Z,62.75
2023-02-18T03:39:35.474Z,55.20
2023-02-18T03:42:07.484Z,50.67
2023-02-18T03:44:36.949Z,66.60
2023-02-18T03:47:06.215Z,66.50
2023-02-18T03:49:35.367Z,64.80
2023-02-18T03:52:04.727Z,61.45
2023-02-18T03:54:35.209Z,57.28
2023-02-18T03:57:04.647Z,55.92
2023-02-18T03:59:33.680Z,66.43
2023-02-18T04:02:03.618Z,57.05
2023-02-18T04:04:33.440Z,56.72
2023-02-18T04:07:02.782Z,58.75
2023-02-18T04:09:32.262Z,59.22
2023-02-18T04:12:02.782Z,65.82
2023-02-18T04:14:32.192Z,55.60
2023-02-18T04:17:01.541Z,63.88
2023-02-18T04:19:30.728Z,56.78
2023-02-18T04:21:59.779Z,55.58
2023-02-18T04:24:29.076Z,62.33
2023-02-18T04:26:58.224Z,42.83
2023-02-18T04:29:28.706Z,59.85
2023-02-18T04:31:58.051Z,55.13
2023-02-18T04:34:27.221Z,51.47
2023-02-18T04:36:57.598Z,53.17
2023-02-18T04:39:26.862Z,56.58
2023-02-18T04:41:56.197Z,55.33
2023-02-18T04:44:25.399Z,49.88
2023-02-18T04:46:55.789Z,51.22
2023-02-18T04:49:25.265Z,53.45
2023-02-18T04:51:54.441Z,51.28
2023-02-18T04:54:23.874Z,50.17
2023-02-18T04:56:53.492Z,48.28
2023-02-18T04:59:23.056Z,49.42
2023-02-18T05:01:52.270Z,52.08
2023-02-18T05:04:22.786Z,55.08
2023-02-18T05:06:51.798Z,47.15
2023-02-18T05:09:21.776Z,49.15
2023-02-18T05:11:51.725Z,48.30
2023-02-18T05:14:20.855Z,46.80
2023-02-18T05:16:49.908Z,39.05
2023-02-18T05:19:19.134Z,38.85
2023-02-18T05:21:49.918Z,38.58
2023-02-18T05:24:22.449Z,42.35
2023-02-18T05:26:51.495Z,39.20
2023-02-18T05:29:20.902Z,43.00
2023-02-18T05:31:50.997Z,40.10
2023-02-18T05:34:23.470Z,43.92
2023-02-18T05:36:54.410Z,41.20
2023-02-18T05:39:23.532Z,38.50
2023-02-18T05:41:52.760Z,39.55
2023-02-18T05:44:31.389Z,40.47
2023-02-18T05:47:02.732Z,43.03
2023-02-18T05:49:33.087Z,40.13
2023-02-18T05:52:04.419Z,42.35
2023-02-18T05:54:34.279Z,38.30
2023-02-18T05:57:04.214Z,35.20
2023-02-18T05:59:33.781Z,40.20
2023-02-18T06:02:03.016Z,37.40
2023-02-18T06:04:32.549Z,38.47
2023-02-18T06:07:03.016Z,42.40
2023-02-18T06:09:32.237Z,32.88
2023-02-18T06:12:01.742Z,30.92
2023-02-18T06:14:30.657Z,29.45
2023-02-18T06:17:00.029Z,28.33
2023-02-18T06:19:29.433Z,31.88
2023-02-18T06:21:58.492Z,26.38
2023-02-18T06:24:28.879Z,32.53
2023-02-18T06:26:57.944Z,25.13
2023-02-18T06:29:29.825Z,23.77
2023-02-18T06:31:59.663Z,23.98
2023-02-18T06:34:29.367Z,24.98
2023-02-18T06:36:59.911Z,21.48
2023-02-18T06:39:32.073Z,21.05
2023-02-18T06:42:01.226Z,20.83
2023-02-18T06:44:30.711Z,20.50
2023-02-18T06:47:00.012Z,17.42
2023-02-18T06:49:30.578Z,23.55
2023-02-18T06:52:00.137Z,21.95
2023-02-18T06:54:29.509Z,21.67
2023-02-18T06:57:00.314Z,17.92
2023-02-18T06:59:29.847Z,21.20
2023-02-18T07:01:59.187Z,20.10
2023-02-18T07:04:28.818Z,24.38
2023-02-18T07:06:58.361Z,22.83
2023-02-18T07:09:28.090Z,19.13
2023-02-18T07:11:57.870Z,24.25
2023-02-18T07:14:28.625Z,21.17
2023-02-18T07:16:58.310Z,16.08
2023-02-18T07:19:28.072Z,14.93
2023-02-18T07:21:57.946Z,12.70
2023-02-18T07:24:27.531Z,11.05
2023-02-18T07:26:57.155Z,13.02
2023-02-18T07:29:27.656Z,13.45
2023-02-18T07:31:56.814Z,17.63
2023-02-18T07:34:25.732Z,12.60
2023-02-18T07:36:56.210Z,14.98
2023-02-18T07:39:25.490Z,13.70
2023-02-18T07:41:54.699Z,11.55
2023-02-18T07:44:28.034Z,11.45
2023-02-18T07:46:57.574Z,9.40
2023-02-18T07:49:27.214Z,8.95
2023-02-18T07:51:56.991Z,9.32
2023-02-18T07:54:26.686Z,10.10
2023-02-18T07:56:56.085Z,9.02
2023-02-18T07:59:27.186Z,6.82
2023-02-18T08:01:56.371Z,8.05
2023-02-18T08:04:25.840Z,10.02
2023-02-18T08:06:55.591Z,5.35
2023-02-18T08:09:24.831Z,5.53
2023-02-18T08:11:54.751Z,5.05
2023-02-18T08:14:24.716Z,7.50
2023-02-18T08:16:55.308Z,5.97
2023-02-18T08:19:24.469Z,4.32
2023-02-18T08:21:53.811Z,8.00
2023-02-18T08:24:23.239Z,5.85
2023-02-18T08:27:00.432Z,5.05
2023-02-18T08:29:30.943Z,10.77
2023-02-18T08:32:01.883Z,10.60
2023-02-18T08:34:31.603Z,7.70
2023-02-18T08:37:02.863Z,6.75
2023-02-18T08:39:38.438Z,8.82
2023-02-18T08:42:09.185Z,8.75
2023-02-18T08:44:38.936Z,7.68
2023-02-18T08:48:16.547Z,9.48
2023-02-18T08:49:59.211Z,5.50
2023-02-18T08:52:29.092Z,7.00
2023-02-18T08:54:58.375Z,7.43
2023-02-18T08:57:29.092Z,9.07
2023-02-18T08:59:58.164Z,10.10
2023-02-18T09:02:29.814Z,5.85
2023-02-18T09:04:59.168Z,5.15
2023-02-18T09:07:28.546Z,8.93
2023-02-18T09:09:57.748Z,9.00
2023-02-18T09:12:26.854Z,6.20
2023-02-18T09:14:56.160Z,5.15
2023-02-18T09:17:25.350Z,8.90
2023-02-18T09:19:57.265Z,9.98
2023-02-18T09:22:27.342Z,6.22
2023-02-18T09:24:56.480Z,7.05
2023-02-18T09:27:27.773Z,4.40
2023-02-18T09:29:56.983Z,7.45
2023-02-18T09:32:35.368Z,6.30
2023-02-18T09:35:07.155Z,5.90
2023-02-18T09:37:36.886Z,6.50
2023-02-18T09:40:07.085Z,5.18
2023-02-18T09:42:36.561Z,7.70
2023-02-18T09:45:12.671Z,5.38
2023-02-18T09:47:45.020Z,6.32
2023-02-18T09:50:21.781Z,7.32
2023-02-18T09:52:51.415Z,9.73
2023-02-18T09:55:24.249Z,7.45
2023-02-18T09:57:55.625Z,5.63
2023-02-18T10:00:32.739Z,7.40
2023-02-18T10:03:07.037Z,5.43
2023-02-18T10:05:39.235Z,6.20
2023-02-18T10:08:19.991Z,8.13
2023-02-18T10:10:48.995Z,8.07
2023-02-18T10:13:21.350Z,12.68
2023-02-18T10:15:51.821Z,5.47
2023-02-18T10:21:09.107Z,9.35
2023-02-18T10:23:42.585Z,6.82
2023-02-18T10:26:17.570Z,4.72
2023-02-18T10:28:47.716Z,6.60
2023-02-18T10:31:23.375Z,6.75
2023-02-18T10:34:01.137Z,6.97
2023-02-18T10:36:39.127Z,6.80
2023-02-18T10:39:22.514Z,7.47
2023-02-18T10:42:02.433Z,8.38
2023-02-18T10:44:45.757Z,10.07
2023-02-18T10:47:23.202Z,9.23
2023-02-18T10:49:59.060Z,7.10
2023-02-18T10:52:32.865Z,5.35
2023-02-18T10:55:05.374Z,10.45
2023-02-18T10:57:34.818Z,7.93
2023-02-18T11:00:17.553Z,8.07
2023-02-18T11:02:48.408Z,10.23
2023-02-18T11:05:25.913Z,9.07
2023-02-18T11:07:59.337Z,7.22
2023-02-18T11:10:32.062Z,6.35
2023-02-18T11:13:04.278Z,7.25
2023-02-18T11:15:34.432Z,6.10
2023-02-18T11:18:15.133Z,6.72
2023-02-18T11:20:57.915Z,3.97
2023-02-18T11:23:28.985Z,4.35
2023-02-18T11:26:01.769Z,7.05
2023-02-18T11:28:43.374Z,6.77
2023-02-18T11:31:21.072Z,6.68
2023-02-18T11:33:53.706Z,6.00
2023-02-18T11:36:30.036Z,4.07
2023-02-18T11:39:04.682Z,7.25
2023-02-18T11:41:37.219Z,4.53
2023-02-18T11:44:09.919Z,3.58
2023-02-18T11:46:39.172Z,7.57
2023-02-18T11:49:24.720Z,6.22
2023-02-18T11:51:54.650Z,4.95
2023-02-18T11:54:30.195Z,7.90
2023-02-18T11:57:03.569Z,4.32
2023-02-18T11:59:36.613Z,8.25
2023-02-18T12:02:27.268Z,4.88
2023-02-18T12:05:02.936Z,7.13
2023-02-18T12:07:40.818Z,6.40
2023-02-18T12:10:17.069Z,10.55
2023-02-18T12:12:49.679Z,10.38
2023-02-18T12:15:28.261Z,9.10
2023-02-18T12:18:16.484Z,9.10
2023-02-18T12:20:56.326Z,6.97
2023-02-18T12:23:35.496Z,6.60
2023-02-18T12:26:19.700Z,10.75
2023-02-18T12:29:13.052Z,5.43
2023-02-18T12:32:17.731Z,7.00
2023-02-18T12:37:56.048Z,7.82
2023-02-18T12:40:47.110Z,5.78
2023-02-18T12:43:27.854Z,6.05
2023-02-18T12:46:16.627Z,7.38
2023-02-18T12:48:59.751Z,6.00
2023-02-18T12:51:38.432Z,5.43
2023-02-18T12:54:32.377Z,5.40
2023-02-18T12:57:34.457Z,8.00
2023-02-18T13:00:36.104Z,5.72
2023-02-18T13:03:33.940Z,9.20
2023-02-18T13:06:14.615Z,8.43
2023-02-18T13:08:59.119Z,4.82
2023-02-18T13:11:38.330Z,6.60
2023-02-18T13:14:14.352Z,8.45
2023-02-18T13:16:47.649Z,8.65
2023-02-18T13:19:24.105Z,7.75
2023-02-18T13:21:55.804Z,6.38
2023-02-18T13:24:32.424Z,9.13
2023-02-18T13:27:09.613Z,9.48
2023-02-18T13:29:46.250Z,6.47
2023-02-18T13:32:25.634Z,6.43
2023-02-18T13:35:01.683Z,8.82
2023-02-18T13:37:39.291Z,6.40
2023-02-18T13:40:19.401Z,6.38
2023-02-18T13:42:52.073Z,10.00
2023-02-18T13:45:28.201Z,7.28
2023-02-18T13:47:59.240Z,9.63
2023-02-18T13:50:33.795Z,10.50
2023-02-18T13:53:22.099Z,8.88
2023-02-18T13:56:01.767Z,9.60
2023-02-18T13:58:40.371Z,6.82
2023-02-18T14:01:19.018Z,10.07
2023-02-18T14:04:00.420Z,7.25
2023-02-18T14:06:34.255Z,7.57
2023-02-18T14:09:37.620Z,8.90
2023-02-18T14:12:28.248Z,9.43
2023-02-18T14:14:59.706Z,7.25
2023-02-18T14:17:33.531Z,10.05
2023-02-18T14:20:47.962Z,4.95
2023-02-18T14:23:43.594Z,7.70
2023-02-18T14:26:23.296Z,8.55
2023-02-18T14:28:57.545Z,10.20
2023-02-18T14:31:52.764Z,7.43
2023-02-18T14:35:08.340Z,6.75
2023-02-18T14:38:21.844Z,11.80
2023-02-18T14:41:23.129Z,8.18
2023-02-18T14:44:12.604Z,7.03
2023-02-18T14:46:55.775Z,7.18
2023-02-18T14:49:37.860Z,4.63
2023-02-18T14:52:13.227Z,7.93
2023-02-18T14:54:44.819Z,9.45
2023-02-18T14:57:20.607Z,8.30
2023-02-18T14:59:58.593Z,8.68
2023-02-18T15:02:31.234Z,9.63
2023-02-18T15:05:18.121Z,9.88
2023-02-18T15:07:58.068Z,9.68
2023-02-18T15:10:40.860Z,11.55
2023-02-18T15:13:20.072Z,10.73
2023-02-18T15:15:53.625Z,12.27
2023-02-18T15:18:31.480Z,8.13
2023-02-18T15:21:03.081Z,8.40
2023-02-18T15:23:36.760Z,13.07
2023-02-18T15:28:52.133Z,10.82
2023-02-18T15:31:28.289Z,7.80
2023-02-18T15:33:57.921Z,12.95
2023-02-18T15:36:28.550Z,10.50
2023-02-18T15:38:58.646Z,9.20
2023-02-18T15:41:29.803Z,5.10
2023-02-18T15:44:05.134Z,6.03
2023-02-18T15:46:35.589Z,7.78
2023-02-18T15:49:09.364Z,7.72
2023-02-18T15:51:39.357Z,8.38
2023-02-18T15:54:15.954Z,8.25
2023-02-18T15:56:47.776Z,9.18
2023-02-18T15:59:22.137Z,12.35
2023-02-18T16:01:52.644Z,7.70
2023-02-18T16:04:22.844Z,9.52
2023-02-18T16:06:54.187Z,6.40
2023-02-18T16:09:27.554Z,7.20
2023-02-18T16:12:00.488Z,8.90
2023-02-18T16:14:34.784Z,6.10
2023-02-18T16:17:11.200Z,7.35
2023-02-18T16:20:03.296Z,9.88
2023-02-18T16:22:39.187Z,6.78
2023-02-18T16:25:17.778Z,9.77
2023-02-18T16:27:54.192Z,9.40
2023-02-18T16:30:28.033Z,9.43
2023-02-18T16:35:32.791Z,5.45
2023-02-18T16:38:08.156Z,7.45
2023-02-18T16:40:40.970Z,7.47
2023-02-18T16:43:13.619Z,7.83
2023-02-18T16:45:49.215Z,14.05
2023-02-18T16:48:23.959Z,9.18
2023-02-18T16:50:57.999Z,7.63
2023-02-18T16:53:27.448Z,9.57
2023-02-18T16:55:58.938Z,9.25
2023-02-18T16:58:30.401Z,8.73
2023-02-18T17:01:02.514Z,10.73
2023-02-18T17:03:32.899Z,10.45
2023-02-18T17:06:04.014Z,8.82
2023-02-18T17:08:33.513Z,7.63
2023-02-18T17:11:02.855Z,8.15
2023-02-18T17:13:32.606Z,9.07
2023-02-18T17:16:03.691Z,10.23
2023-02-18T17:21:05.252Z,7.53
2023-02-18T17:23:34.972Z,5.88
2023-02-18T17:26:04.796Z,6.95
2023-02-18T17:28:34.710Z,7.90
2023-02-18T17:31:06.579Z,13.25
2023-02-18T17:33:36.796Z,11.00
2023-02-18T17:36:10.293Z,6.03
2023-02-18T17:38:42.033Z,18.55
2023-02-18T17:41:12.604Z,11.05
2023-02-18T17:43:42.575Z,8.38
2023-02-18T17:46:15.229Z,7.05
2023-02-18T17:48:46.091Z,8.83
2023-02-18T17:51:24.486Z,9.80
2023-02-18T17:53:54.385Z,12.45
2023-02-18T17:56:24.884Z,9.15
2023-02-18T17:58:54.418Z,9.70
2023-02-18T18:01:25.340Z,10.25
2023-02-18T18:03:54.521Z,8.32
2023-02-18T18:06:23.779Z,6.65
2023-02-18T18:08:53.326Z,10.30
2023-02-18T18:11:25.045Z,6.05
2023-02-18T18:13:54.815Z,9.45
2023-02-18T18:16:26.525Z,9.30
2023-02-18T18:18:56.160Z,8.80
2023-02-18T18:21:36.476Z,12.10
2023-02-18T18:24:08.600Z,8.50
2023-02-18T18:26:38.337Z,8.00
2023-02-18T18:29:08.151Z,13.68
2023-02-18T18:31:38.601Z,12.85
2023-02-18T18:34:07.932Z,8.27
2023-02-18T18:36:46.151Z,11.40
2023-02-18T18:39:24.818Z,11.25
2023-02-18T18:41:55.882Z,8.23
2023-02-18T18:44:25.211Z,14.82
2023-02-18T18:46:56.689Z,7.25
2023-02-18T18:49:26.421Z,7.80
2023-02-18T18:51:56.909Z,6.90
2023-02-18T18:54:26.399Z,12.60
2023-02-18T18:56:55.569Z,12.50
2023-02-18T18:59:25.928Z,6.78
2023-02-18T19:01:57.327Z,11.98
2023-02-18T19:04:28.554Z,8.93
2023-02-18T19:06:58.070Z,11.90
2023-02-18T19:09:27.446Z,9.32
2023-02-18T19:11:56.854Z,10.68
2023-02-18T19:14:26.560Z,10.15
2023-02-18T19:16:57.443Z,9.95
2023-02-18T19:19:27.079Z,9.18
2023-02-18T19:21:56.765Z,9.13
2023-02-18T19:24:26.643Z,8.07
2023-02-18T19:26:55.838Z,8.38
2023-02-18T19:29:25.689Z,10.68
2023-02-18T19:31:56.412Z,8.13
2023-02-18T19:34:26.083Z,11.95
2023-02-18T19:36:56.687Z,7.60
2023-02-18T19:39:27.237Z,8.98
2023-02-18T19:41:57.184Z,10.82
2023-02-18T19:44:26.740Z,10.45
2023-02-18T19:47:01.333Z,8.52
2023-02-18T19:49:32.012Z,6.75
2023-02-18T19:52:04.391Z,6.65
2023-02-18T19:54:35.601Z,6.90
2023-02-18T19:57:07.559Z,6.45
2023-02-18T19:59:37.446Z,8.32
2023-02-18T20:02:15.005Z,10.70
2023-02-18T20:04:46.060Z,6.93
2023-02-18T20:07:18.835Z,10.52
2023-02-18T20:09:49.338Z,10.20
2023-02-18T20:12:19.175Z,8.40
2023-02-18T20:14:51.249Z,11.00
2023-02-18T20:17:21.947Z,24.52
2023-02-18T20:19:52.394Z,18.20
2023-02-18T20:22:22.946Z,8.32
2023-02-18T20:24:52.813Z,7.38
2023-02-18T20:27:22.369Z,12.95
2023-02-18T20:29:52.541Z,8.82
2023-02-18T20:32:23.465Z,9.15
2023-02-18T20:34:53.026Z,9.52
2023-02-18T20:37:22.446Z,8.13
2023-02-18T20:39:51.928Z,13.85
2023-02-18T20:42:22.043Z,13.07
2023-02-18T20:44:51.954Z,9.23
2023-02-18T20:47:22.868Z,8.55
2023-02-18T20:49:52.668Z,9.40
2023-02-18T20:52:21.963Z,9.15
2023-02-18T20:54:51.685Z,10.20
2023-02-18T20:57:20.623Z,17.88
2023-02-18T20:59:50.216Z,9.43
2023-02-18T21:02:20.194Z,8.70
2023-02-18T21:04:50.828Z,8.90
2023-02-18T21:07:20.036Z,10.73
2023-02-18T21:09:49.199Z,7.80
2023-02-18T21:12:18.572Z,7.85
2023-02-18T21:14:48.053Z,7.85
2023-02-18T21:17:17.434Z,11.23
2023-02-18T21:19:46.552Z,10.27
2023-02-18T21:22:17.160Z,9.82
2023-02-18T21:24:46.336Z,11.88
2023-02-18T21:27:15.726Z,12.93
2023-02-18T21:29:45.113Z,7.60
2023-02-18T21:32:14.748Z,13.55
2023-02-18T21:34:44.107Z,11.80
2023-02-18T21:37:13.223Z,14.35
2023-02-18T21:39:43.928Z,10.13
2023-02-18T21:42:13.321Z,8.15
2023-02-18T21:44:43.119Z,10.13
2023-02-18T21:47:13.130Z,12.13
2023-02-18T21:49:42.572Z,13.30
2023-02-18T21:52:11.714Z,7.13
2023-02-18T21:54:45.524Z,13.43
2023-02-18T21:57:17.010Z,8.98
2023-02-18T21:59:46.713Z,10.98
2023-02-18T22:02:17.765Z,12.07
2023-02-18T22:04:48.010Z,9.43
2023-02-18T22:07:18.738Z,8.48
2023-02-18T22:09:50.813Z,7.72
2023-02-18T22:12:20.708Z,8.30
2023-02-18T22:14:50.098Z,11.10
2023-02-18T22:17:36.753Z,9.05
2023-02-18T22:20:08.643Z,8.43
2023-02-18T22:22:46.702Z,10.32
2023-02-18T22:25:22.352Z,7.75
2023-02-18T22:27:51.704Z,13.13
2023-02-18T22:30:21.640Z,9.27
2023-02-18T22:32:51.180Z,9.32
2023-02-18T22:35:20.574Z,12.88
2023-02-18T22:37:49.897Z,8.63
2023-02-18T22:40:19.782Z,7.90
2023-02-18T22:42:50.406Z,13.82
2023-02-18T22:45:19.803Z,7.40
2023-02-18T22:47:49.212Z,12.20
2023-02-18T22:50:18.578Z,9.95
2023-02-18T22:52:47.542Z,7.30
2023-02-18T22:55:17.082Z,11.40
2023-02-18T22:57:46.424Z,11.57
2023-02-18T23:00:17.388Z,11.63
2023-02-18T23:02:51.878Z,11.77
2023-02-18T23:05:21.345Z,8.63
2023-02-18T23:07:51.986Z,11.18
2023-02-18T23:10:22.417Z,12.80
2023-02-18T23:12:51.802Z,6.70
2023-02-18T23:15:22.403Z,11.38
2023-02-18T23:17:51.684Z,11.52
2023-02-18T23:20:41.076Z,9.68
2023-02-18T23:23:10.534Z,11.13
2023-02-18T23:25:39.732Z,9.90
2023-02-18T23:28:09.032Z,13.48
2023-02-18T23:30:39.679Z,9.63
2023-02-18T23:33:08.707Z,10.55
2023-02-18T23:35:39.337Z,10.85
2023-02-18T23:38:11.033Z,11.88
2023-02-18T23:40:40.250Z,9.20
2023-02-18T23:43:09.438Z,14.77
2023-02-18T23:45:40.002Z,10.55
2023-02-18T23:48:09.217Z,9.77
2023-02-18T23:50:38.545Z,10.23
2023-02-18T23:53:07.627Z,15.45
2023-02-18T23:55:36.878Z,7.32
2023-02-18T23:58:06.088Z,10.15
